createdAt,value
2022-09-25T00:05:02.840Z,25.52
2022-09-25T00:21:01.576Z,26.65
2022-09-25T00:39:36.649Z,27.60
2022-09-25T00:55:35.514Z,27.40
2022-09-25T00:58:05.162Z,26.13
2022-09-25T01:00:33.755Z,26.33
2022-09-25T01:03:02.611Z,27.52
2022-09-25T01:05:44.151Z,27.52
2022-09-25T01:08:18.413Z,26.25
2022-09-25T01:10:48.052Z,27.40
2022-09-25T01:29:23.528Z,28.13
2022-09-25T01:42:54.913Z,29.00
2022-09-25T01:48:01.663Z,31.02
2022-09-25T01:50:45.319Z,33.45
2022-09-25T01:53:19.651Z,30.17
2022-09-25T01:55:56.673Z,29.27
2022-09-25T01:59:00.728Z,32.05
2022-09-25T02:01:33.044Z,31.45
2022-09-25T02:04:10.261Z,33.60
2022-09-25T02:06:40.316Z,31.20
2022-09-25T02:09:19.622Z,31.02
2022-09-25T02:11:51.561Z,33.42
2022-09-25T02:14:25.802Z,32.45
2022-09-25T02:22:14.398Z,31.65
2022-09-25T02:24:54.093Z,31.20
2022-09-25T02:32:41.329Z,32.95
2022-09-25T02:35:10.224Z,31.55
2022-09-25T02:43:10.933Z,31.25
2022-09-25T02:48:19.981Z,32.38
2022-09-25T03:07:23.735Z,30.35
2022-09-25T03:15:08.351Z,31.15
2022-09-25T03:31:14.256Z,27.90
2022-09-25T03:33:44.823Z,29.35
2022-09-25T03:36:21.289Z,28.90
2022-09-25T03:41:25.815Z,28.95
2022-09-25T03:46:32.738Z,28.58
2022-09-25T03:49:01.484Z,29.85
2022-09-25T03:51:31.441Z,31.92
2022-09-25T03:53:59.485Z,30.45
2022-09-25T03:56:30.117Z,31.20
2022-09-25T03:59:00.989Z,30.98
2022-09-25T04:04:12.201Z,32.08
2022-09-25T04:12:09.135Z,31.85
2022-09-25T04:14:37.114Z,31.80
2022-09-25T04:17:06.115Z,30.30
2022-09-25T04:41:12.887Z,31.45
2022-09-25T04:49:03.817Z,30.65
2022-09-25T04:56:48.621Z,30.30
2022-09-25T05:01:57.489Z,29.20
2022-09-25T05:04:24.802Z,29.70
2022-09-25T05:06:52.781Z,29.02
2022-09-25T05:17:30.601Z,30.60
2022-09-25T05:20:01.106Z,30.33
2022-09-25T05:25:10.844Z,33.03
2022-09-25T05:27:38.077Z,32.53
2022-09-25T05:32:54.852Z,34.35
2022-09-25T05:35:25.204Z,33.53
2022-09-25T05:37:52.401Z,31.45
2022-09-25T05:40:21.873Z,27.25
2022-09-25T05:42:49.410Z,23.00
2022-09-25T05:45:17.891Z,22.65
2022-09-25T05:47:45.196Z,19.40
2022-09-25T05:50:18.682Z,21.17
2022-09-25T05:52:48.095Z,18.23
2022-09-25T05:55:15.589Z,15.43
2022-09-25T05:57:42.351Z,15.57
2022-09-25T06:00:12.360Z,15.52
2022-09-25T06:02:39.496Z,13.40
2022-09-25T06:05:10.459Z,13.63
2022-09-25T06:07:40.053Z,14.85
2022-09-25T06:10:08.191Z,12.50
2022-09-25T06:12:45.383Z,14.73
2022-09-25T06:17:57.819Z,12.67
2022-09-25T06:20:25.430Z,11.50
2022-09-25T06:22:54.363Z,13.83
2022-09-25T06:25:29.790Z,13.10
2022-09-25T06:27:57.937Z,12.57
2022-09-25T06:30:27.858Z,12.70
2022-09-25T06:32:58.697Z,11.80
2022-09-25T06:35:26.279Z,13.13
2022-09-25T06:37:57.181Z,12.07
2022-09-25T06:40:24.922Z,11.73
2022-09-25T06:42:58.878Z,12.10
2022-09-25T06:45:27.339Z,11.37
2022-09-25T06:47:57.969Z,11.90
2022-09-25T06:50:31.768Z,11.73
2022-09-25T06:53:00.806Z,11.67
2022-09-25T06:55:29.916Z,11.23
2022-09-25T06:57:56.680Z,11.93
2022-09-25T07:00:24.032Z,13.30
2022-09-25T07:03:10.240Z,10.70
2022-09-25T07:05:42.667Z,9.73
2022-09-25T07:08:11.068Z,13.20
2022-09-25T07:10:45.592Z,10.93
2022-09-25T07:13:12.819Z,10.43
2022-09-25T07:15:41.806Z,11.20
2022-09-25T07:18:15.238Z,12.40
2022-09-25T07:20:41.903Z,11.23
2022-09-25T07:23:08.953Z,11.40
2022-09-25T07:25:36.144Z,10.33
2022-09-25T07:28:04.053Z,11.40
2022-09-25T07:30:32.318Z,9.70
2022-09-25T07:33:00.207Z,9.63
2022-09-25T07:35:30.144Z,9.70
2022-09-25T07:37:57.609Z,9.93
2022-09-25T07:40:30.275Z,11.63
2022-09-25T07:43:00.336Z,10.00
2022-09-25T07:45:29.225Z,9.53
2022-09-25T07:48:03.466Z,10.57
2022-09-25T07:50:33.907Z,10.63
2022-09-25T07:53:00.685Z,11.33
2022-09-25T07:55:28.946Z,10.67
2022-09-25T07:58:01.319Z,10.60
2022-09-25T08:00:28.361Z,9.83
2022-09-25T08:02:57.473Z,10.03
2022-09-25T08:05:24.871Z,10.40
2022-09-25T08:07:52.852Z,9.13
2022-09-25T08:10:20.233Z,9.30
2022-09-25T08:12:48.409Z,9.33
2022-09-25T08:15:15.262Z,11.33
2022-09-25T08:17:44.191Z,11.10
2022-09-25T08:20:10.910Z,9.27
2022-09-25T08:22:37.842Z,11.40
2022-09-25T08:25:04.909Z,8.23
2022-09-25T08:27:32.496Z,8.90
2022-09-25T08:29:59.745Z,9.97
2022-09-25T08:32:26.431Z,21.40
2022-09-25T08:34:54.658Z,13.63
2022-09-25T08:37:21.342Z,9.67
2022-09-25T08:39:49.805Z,9.50
2022-09-25T08:42:27.237Z,9.43
2022-09-25T08:45:22.861Z,11.23
2022-09-25T08:48:11.246Z,10.30
2022-09-25T08:50:38.783Z,10.37
2022-09-25T08:56:09.132Z,7.50
2022-09-25T08:58:42.676Z,7.50
2022-09-25T09:01:19.761Z,6.37
2022-09-25T09:04:05.056Z,10.60
2022-09-25T09:06:33.722Z,6.63
2022-09-25T09:09:15.176Z,5.97
2022-09-25T09:11:49.381Z,6.47
2022-09-25T09:14:21.084Z,6.00
2022-09-25T09:17:06.925Z,5.17
2022-09-25T09:19:33.716Z,6.10
2022-09-25T09:22:11.582Z,6.60
2022-09-25T09:25:15.836Z,6.70
2022-09-25T09:28:04.550Z,5.07
2022-09-25T09:30:35.568Z,5.50
2022-09-25T09:33:24.778Z,5.97
2022-09-25T09:35:54.243Z,6.00
2022-09-25T09:38:33.479Z,5.30
2022-09-25T09:41:27.763Z,5.27
2022-09-25T09:44:24.432Z,5.73
2022-09-25T09:47:22.673Z,5.80
2022-09-25T09:50:04.971Z,5.30
2022-09-25T09:52:42.469Z,4.27
2022-09-25T09:55:39.212Z,4.90
2022-09-25T09:58:14.985Z,5.57
2022-09-25T10:00:42.079Z,5.43
2022-09-25T10:03:19.874Z,4.53
2022-09-25T10:05:49.250Z,4.43
2022-09-25T10:08:17.568Z,4.50
2022-09-25T10:10:48.009Z,4.37
2022-09-25T10:13:37.422Z,3.90
2022-09-25T10:16:18.443Z,3.90
2022-09-25T10:19:04.747Z,4.23
2022-09-25T10:21:57.611Z,4.00
2022-09-25T10:24:51.386Z,4.10
2022-09-25T10:27:41.701Z,4.90
2022-09-25T10:30:11.913Z,5.00
2022-09-25T10:32:43.178Z,5.40
2022-09-25T10:35:21.912Z,5.10
2022-09-25T10:37:52.854Z,4.53
2022-09-25T10:40:40.473Z,4.40
2022-09-25T10:43:25.208Z,4.23
2022-09-25T10:46:48.808Z,5.00
2022-09-25T10:49:49.069Z,3.60
2022-09-25T10:52:19.708Z,3.80
2022-09-25T10:54:48.269Z,4.30
2022-09-25T10:57:38.526Z,4.67
2022-09-25T11:00:21.873Z,4.90
2022-09-25T11:02:53.915Z,3.87
2022-09-25T11:05:27.821Z,4.53
2022-09-25T11:07:57.924Z,5.47
2022-09-25T11:10:29.071Z,4.87
2022-09-25T11:12:57.121Z,5.90
2022-09-25T11:15:27.935Z,4.20
2022-09-25T11:17:59.912Z,4.50
2022-09-25T11:20:32.101Z,4.20
2022-09-25T11:23:26.591Z,4.73
2022-09-25T11:26:07.131Z,4.20
2022-09-25T11:29:05.940Z,3.77
2022-09-25T11:31:38.849Z,3.90
2022-09-25T11:34:19.620Z,4.10
2022-09-25T11:36:51.446Z,4.40
2022-09-25T11:40:03.016Z,4.47
2022-09-25T11:43:06.415Z,4.90
2022-09-25T11:45:43.901Z,4.30
2022-09-25T11:48:26.121Z,4.37
2022-09-25T11:51:11.727Z,2.83
2022-09-25T11:54:32.593Z,4.10
2022-09-25T11:57:10.706Z,3.50
2022-09-25T11:59:57.875Z,5.30
2022-09-25T12:02:57.724Z,3.13
2022-09-25T12:05:39.504Z,4.47
2022-09-25T12:08:44.691Z,4.00
2022-09-25T12:11:30.717Z,3.63
2022-09-25T12:14:10.201Z,4.07
2022-09-25T12:17:01.446Z,3.40
2022-09-25T12:20:05.024Z,3.80
2022-09-25T12:23:05.393Z,3.80
2022-09-25T12:25:51.164Z,3.40
2022-09-25T12:28:34.191Z,4.73
2022-09-25T12:31:06.184Z,3.53
2022-09-25T12:33:52.536Z,3.83
2022-09-25T12:36:36.849Z,3.27
2022-09-25T12:39:21.439Z,3.20
2022-09-25T12:41:53.758Z,3.40
2022-09-25T12:44:27.805Z,3.47
2022-09-25T12:47:02.401Z,4.80
2022-09-25T12:49:36.889Z,4.00
2022-09-25T12:52:14.054Z,3.87
2022-09-25T12:55:26.128Z,3.90
2022-09-25T12:58:02.551Z,2.57
2022-09-25T13:00:32.965Z,3.70
2022-09-25T13:03:30.856Z,2.87
2022-09-25T13:06:25.108Z,2.90
2022-09-25T13:09:01.560Z,3.10
2022-09-25T13:11:52.191Z,3.10
2022-09-25T13:14:42.832Z,2.90
2022-09-25T13:17:14.000Z,13.33
2022-09-25T13:19:42.766Z,3.07
2022-09-25T13:22:12.613Z,5.23
2022-09-25T13:25:04.521Z,4.97
2022-09-25T13:27:40.264Z,4.77
2022-09-25T13:30:08.151Z,2.80
2022-09-25T13:32:35.602Z,3.00
2022-09-25T13:35:07.193Z,6.90
2022-09-25T13:37:38.042Z,4.10
2022-09-25T13:40:42.141Z,4.20
2022-09-25T13:43:26.646Z,3.40
2022-09-25T13:46:20.592Z,2.90
2022-09-25T13:48:50.800Z,3.43
2022-09-25T13:51:20.132Z,3.53
2022-09-25T13:54:11.351Z,2.97
2022-09-25T13:56:41.012Z,3.30
2022-09-25T13:59:12.376Z,3.33
2022-09-25T14:01:43.383Z,2.87
2022-09-25T14:04:16.838Z,3.73
2022-09-25T14:06:56.141Z,3.53
2022-09-25T14:09:28.263Z,3.70
2022-09-25T14:12:09.119Z,4.40
2022-09-25T14:14:43.232Z,3.57
2022-09-25T14:17:19.265Z,4.43
2022-09-25T14:19:49.111Z,5.47
2022-09-25T14:22:29.829Z,4.30
2022-09-25T14:24:56.580Z,6.20
2022-09-25T14:27:30.584Z,5.80
2022-09-25T14:30:12.125Z,4.90
2022-09-25T14:33:05.591Z,5.00
2022-09-25T14:36:03.389Z,3.63
2022-09-25T14:39:01.195Z,3.97
2022-09-25T14:42:18.803Z,3.80
2022-09-25T14:45:23.740Z,4.17
2022-09-25T14:47:53.338Z,2.97
2022-09-25T14:50:53.464Z,3.53
2022-09-25T14:53:28.342Z,4.63
2022-09-25T14:55:57.980Z,3.63
2022-09-25T14:58:28.897Z,3.60
2022-09-25T15:01:02.109Z,4.00
2022-09-25T15:03:31.507Z,4.10
2022-09-25T15:06:16.352Z,3.77
2022-09-25T15:08:47.714Z,4.43
2022-09-25T15:11:21.484Z,5.60
2022-09-25T15:13:55.258Z,6.90
2022-09-25T15:16:43.900Z,4.53
2022-09-25T15:19:22.517Z,3.53
2022-09-25T15:21:51.916Z,3.50
2022-09-25T15:24:28.518Z,4.30
2022-09-25T15:27:03.847Z,3.93
2022-09-25T15:29:37.373Z,3.93
2022-09-25T15:32:07.117Z,3.80
2022-09-25T15:34:34.522Z,4.00
2022-09-25T15:37:31.911Z,3.90
2022-09-25T15:40:23.565Z,3.77
2022-09-25T15:42:52.488Z,3.50
2022-09-25T15:45:37.305Z,3.20
2022-09-25T15:48:10.503Z,4.80
2022-09-25T15:50:37.812Z,5.70
2022-09-25T15:53:05.083Z,5.50
2022-09-25T15:55:33.910Z,4.50
2022-09-25T15:58:10.742Z,6.10
2022-09-25T16:01:16.472Z,5.30
2022-09-25T16:04:07.879Z,4.43
2022-09-25T16:06:50.832Z,4.30
2022-09-25T16:09:33.902Z,5.30
2022-09-25T16:12:23.743Z,5.77
2022-09-25T16:15:00.996Z,5.00
2022-09-25T16:17:43.529Z,5.83
2022-09-25T16:20:33.845Z,7.47
2022-09-25T16:23:10.752Z,6.90
2022-09-25T16:25:43.769Z,9.70
2022-09-25T16:28:27.676Z,11.20
2022-09-25T16:31:06.989Z,11.30
2022-09-25T16:33:41.027Z,10.03
2022-09-25T16:36:18.454Z,12.20
2022-09-25T16:39:11.423Z,10.83
2022-09-25T16:41:41.230Z,11.60
2022-09-25T16:44:16.244Z,12.10
2022-09-25T16:46:47.807Z,14.90
2022-09-25T16:49:16.109Z,15.10
2022-09-25T16:51:46.618Z,13.47
2022-09-25T16:54:18.071Z,13.67
2022-09-25T16:56:57.192Z,11.70
2022-09-25T16:59:31.750Z,12.27
2022-09-25T17:02:06.223Z,11.80
2022-09-25T17:04:36.718Z,10.37
2022-09-25T17:07:06.363Z,10.97
2022-09-25T17:09:37.032Z,9.97
2022-09-25T17:23:23.981Z,9.10
2022-09-25T17:26:23.975Z,10.23
2022-09-25T17:28:51.296Z,9.90
2022-09-25T17:31:21.367Z,9.23
2022-09-25T17:33:56.413Z,9.17
2022-09-25T17:36:26.971Z,9.17
2022-09-25T17:39:23.185Z,11.27
2022-09-25T17:41:51.362Z,9.93
2022-09-25T17:44:22.419Z,9.83
2022-09-25T17:46:52.131Z,9.60
2022-09-25T17:49:24.244Z,9.50
2022-09-25T17:51:53.245Z,7.20
2022-09-25T17:54:21.531Z,7.83
2022-09-25T17:56:51.825Z,8.23
2022-09-25T17:59:22.802Z,9.00
2022-09-25T18:01:49.974Z,7.53
2022-09-25T18:04:25.722Z,8.73
2022-09-25T18:06:53.048Z,8.97
2022-09-25T18:09:21.122Z,8.70
2022-09-25T18:11:49.083Z,8.53
2022-09-25T18:14:17.423Z,8.10
2022-09-25T18:16:46.076Z,7.53
2022-09-25T18:19:38.316Z,8.60
2022-09-25T18:22:19.636Z,9.47
2022-09-25T18:24:49.554Z,8.77
2022-09-25T18:27:18.716Z,10.20
2022-09-25T18:29:50.405Z,9.60
2022-09-25T18:32:17.626Z,8.83
2022-09-25T18:34:52.169Z,10.67
2022-09-25T18:37:23.098Z,11.07
2022-09-25T18:39:51.668Z,9.97
2022-09-25T18:42:18.545Z,10.33
2022-09-25T18:44:47.920Z,10.10
2022-09-25T18:47:15.157Z,9.13
2022-09-25T18:49:45.022Z,8.97
2022-09-25T18:52:12.245Z,9.27
2022-09-25T18:54:42.562Z,10.60
2022-09-25T18:57:12.633Z,9.63
2022-09-25T18:59:40.376Z,10.00
2022-09-25T19:02:23.733Z,9.90
2022-09-25T19:04:54.419Z,8.70
2022-09-25T19:07:28.325Z,8.87
2022-09-25T19:09:59.442Z,9.67
2022-09-25T19:12:30.293Z,9.73
2022-09-25T19:14:57.553Z,9.17
2022-09-25T19:17:25.149Z,9.30
2022-09-25T19:19:52.937Z,9.17
2022-09-25T19:22:22.958Z,12.07
2022-09-25T19:24:52.827Z,13.10
2022-09-25T19:27:21.557Z,14.70
2022-09-25T19:29:49.848Z,13.20
2022-09-25T19:32:20.133Z,11.60
2022-09-25T19:34:47.682Z,10.83
2022-09-25T19:37:17.831Z,11.90
2022-09-25T19:40:05.114Z,12.13
2022-09-25T19:42:33.908Z,12.17
2022-09-25T19:45:02.380Z,12.20
2022-09-25T19:47:32.409Z,11.30
2022-09-25T19:49:59.952Z,12.77
2022-09-25T19:52:27.702Z,11.93
2022-09-25T19:54:58.075Z,11.73
2022-09-25T19:57:28.448Z,12.43
2022-09-25T19:59:56.725Z,12.90
2022-09-25T20:02:29.108Z,12.90
2022-09-25T20:04:56.551Z,12.43
2022-09-25T20:07:25.786Z,12.37
2022-09-25T20:09:53.137Z,13.80
2022-09-25T20:12:21.178Z,13.70
2022-09-25T20:14:49.332Z,15.20
2022-09-25T20:17:17.612Z,14.00
2022-09-25T20:19:49.257Z,14.90
2022-09-25T20:22:17.990Z,14.77
2022-09-25T20:24:47.565Z,13.33
2022-09-25T20:27:18.672Z,12.83
2022-09-25T20:29:58.048Z,13.00
2022-09-25T20:32:25.430Z,12.27
2022-09-25T20:34:53.501Z,13.33
2022-09-25T20:37:26.688Z,12.53
2022-09-25T20:40:10.489Z,14.47
2022-09-25T20:42:38.873Z,14.17
2022-09-25T20:45:06.911Z,12.87
2022-09-25T20:47:36.904Z,12.93
2022-09-25T20:50:08.561Z,13.63
2022-09-25T20:52:38.866Z,13.77
2022-09-25T20:55:06.011Z,13.57
2022-09-25T20:57:36.139Z,14.07
2022-09-25T21:00:05.969Z,14.10
2022-09-25T21:02:36.825Z,14.13
2022-09-25T21:05:04.153Z,12.97
2022-09-25T21:07:31.219Z,15.73
2022-09-25T21:09:58.228Z,14.40
2022-09-25T21:12:27.796Z,15.43
2022-09-25T21:14:55.970Z,14.83
2022-09-25T21:17:22.755Z,14.43
2022-09-25T21:19:52.310Z,15.63
2022-09-25T21:22:22.632Z,15.98
2022-09-25T21:24:50.738Z,17.50
2022-09-25T21:27:20.603Z,17.70
2022-09-25T21:29:48.608Z,17.57
2022-09-25T21:32:17.356Z,13.70
2022-09-25T21:34:46.337Z,16.50
2022-09-25T21:37:16.319Z,16.10
2022-09-25T21:39:43.531Z,17.52
2022-09-25T21:42:11.054Z,18.17
2022-09-25T21:44:39.734Z,20.50
2022-09-25T21:47:07.110Z,17.20
2022-09-25T21:49:38.943Z,15.70
2022-09-25T21:52:06.559Z,17.05
2022-09-25T21:54:33.736Z,16.90
2022-09-25T21:57:05.247Z,17.67
2022-09-25T21:59:49.000Z,16.17
2022-09-25T22:02:17.464Z,17.43
2022-09-25T22:04:44.672Z,18.80
2022-09-25T22:09:57.419Z,19.50
2022-09-25T22:12:24.603Z,21.53
2022-09-25T22:14:55.997Z,20.00
2022-09-25T22:17:23.121Z,21.38
2022-09-25T22:19:52.780Z,20.45
2022-09-25T22:22:21.403Z,21.60
2022-09-25T22:24:48.545Z,20.52
2022-09-25T22:27:17.490Z,20.67
2022-09-25T22:32:32.269Z,19.17
2022-09-25T22:37:41.006Z,18.08
2022-09-25T22:42:45.126Z,22.15
2022-09-25T22:50:32.489Z,20.05
2022-09-25T22:53:00.486Z,20.85
2022-09-25T22:55:36.707Z,20.13
2022-09-25T22:58:05.055Z,22.05
2022-09-25T23:00:33.881Z,21.50
2022-09-25T23:03:02.208Z,22.27
2022-09-25T23:05:31.712Z,21.70
2022-09-25T23:07:58.688Z,20.95
2022-09-25T23:10:26.249Z,23.63
2022-09-25T23:12:53.445Z,22.25
2022-09-25T23:15:22.056Z,21.50
2022-09-25T23:17:51.231Z,23.75
2022-09-25T23:20:19.685Z,24.67
2022-09-25T23:22:48.595Z,26.02
2022-09-25T23:25:16.172Z,23.98
2022-09-25T23:27:48.747Z,22.45
2022-09-25T23:30:25.396Z,24.95
2022-09-25T23:33:07.144Z,23.58
2022-09-25T23:35:36.130Z,23.10
2022-09-25T23:38:09.094Z,25.27
2022-09-25T23:40:39.184Z,26.33
2022-09-25T23:43:09.352Z,27.67
2022-09-25T23:45:36.827Z,25.73
2022-09-25T23:48:04.495Z,27.15
2022-09-25T23:50:32.648Z,25.50
2022-09-25T23:53:00.615Z,26.95
2022-09-25T23:55:28.963Z,26.13
2022-09-25T23:57:55.855Z,24.65
